메인 페이지
METAR-TAF:

METAR-TAF

공항 :

다롄 저우수이쯔 국제공항

다롄, 중국

위도: 38-54N, 경도: 121-38E, 고도: 97m

현재 날씨관측

예보는 19분 전, 17:30시(UTC)에 발표되었습니다.
여러 방향의 바람 2kt
온도 13°C
습도 88%
기압 1008 hPa
시정 10km 이상
1500m 미만 상공 구름 및 적란운 없음

METAR: ZYTL 311730Z VRB01MPS CAVOK 13/11 Q1008 NOSIG

시각: 01:49 (17:49 UTC)

예보

예보는 2 시간 45분 전, 15:04시(UTC)에 발표되었습니다.
예보 대상 시간: 31일 18시부터 01일 18시까지 (UTC)
서남서8kt, 순간 최대 풍속 19kt
시정: 5000m
고도 3300ft 상공 구름 조금
박무

TAF: ZYTL 311504Z 3118/0118 25004G10MPS 5000 BR FEW033 TX22/0106Z TN14/3120Z

4,000개 이상의 공항 관측 자료 및 예보 (METAR 및 TAF 보고).

지도상에서 검색 가능한 기상관측소가 노란 점과 빨간 점으로 표시되어 있습니다.

기상관측소 명을 보려면 표시 위로 마우스를 이동하세요.

날씨 관측과 예보를 보려면 클릭하세요.

지도 변경 : 확대하려면 엑스 표시가 있는 녹색 버튼, 축소하려면 빼기 표시가 있는 녹색 버튼, 다음 페이지의 지도를 보려면 녹색 화살표를 클릭하세요.


METAR-TAF: